Time;durP1;ratioP1;P1;durP2;ratioP2;P2;SDS_P1;SDS_P2;PMS_P1;PMS_P2;Temp;Humidity;BMP_temperature;BMP_pressure;BME280_temperature;BME280_humidity;BME280_pressure;Samples;Min_cycle;Max_cycle;Signal;HPM_P1;HPM_P2
2022/01/30 00:00:17;;;;;;;8.75;3.83;;;2.70;73.20;;;;;;5009309;28;20037;-73
2022/01/30 00:02:42;;;;;;;9.15;4.72;;;2.70;74.20;;;;;;5014559;28;20113;-73
2022/01/30 00:05:08;;;;;;;9.52;3.67;;;2.70;73.40;;;;;;5015067;28;20030;-73
2022/01/30 00:07:34;;;;;;;10.77;5.00;;;2.70;73.30;;;;;;5014809;28;20111;-73
2022/01/30 00:10:00;;;;;;;12.20;5.35;;;2.90;72.80;;;;;;5014748;28;20044;-73
2022/01/30 00:12:44;;;;;;;10.13;5.47;;;3.00;72.80;;;;;;5014482;28;20383;-73
2022/01/30 00:15:11;;;;;;;8.53;3.50;;;2.90;73.90;;;;;;5014572;28;20062;-73
2022/01/30 00:17:43;;;;;;;8.80;4.35;;;2.70;73.30;;;;;;5014989;28;20667;-73
2022/01/30 00:20:16;;;;;;;7.70;3.95;;;2.60;73.80;;;;;;5014498;28;20034;-73
2022/01/30 00:22:50;;;;;;;8.50;4.18;;;2.70;74.20;;;;;;5014869;28;20050;-73
2022/01/30 00:25:24;;;;;;;11.85;4.32;;;2.30;76.30;;;;;;5014539;28;20116;-73
2022/01/30 00:28:01;;;;;;;13.18;4.75;;;2.30;74.40;;;;;;5014226;28;20488;-74
2022/01/30 00:30:28;;;;;;;8.93;4.85;;;2.50;73.70;;;;;;5014612;28;20037;-73
2022/01/30 00:32:53;;;;;;;12.40;5.25;;;2.60;73.60;;;;;;5013982;28;20025;-73
2022/01/30 00:35:19;;;;;;;14.93;4.97;;;2.60;74.00;;;;;;5014549;28;20038;-73
2022/01/30 00:37:48;;;;;;;8.57;3.53;;;2.50;74.40;;;;;;5014314;28;20488;-73
2022/01/30 00:40:14;;;;;;;12.13;4.75;;;2.40;73.90;;;;;;5013202;28;20464;-73
2022/01/30 00:42:39;;;;;;;8.68;3.67;;;2.30;73.70;;;;;;5013047;28;20432;-73
2022/01/30 00:45:06;;;;;;;8.50;3.20;;;2.40;73.50;;;;;;5014374;28;20030;-73
2022/01/30 00:47:31;;;;;;;6.47;3.17;;;2.40;73.40;;;;;;5013381;28;20041;-73
2022/01/30 00:49:57;;;;;;;10.88;4.05;;;2.50;73.20;;;;;;5014009;28;20033;-73
2022/01/30 00:52:23;;;;;;;9.02;4.15;;;2.70;72.50;;;;;;5014471;28;20042;-73
2022/01/30 00:54:48;;;;;;;11.05;4.45;;;2.70;73.40;;;;;;5013763;28;20111;-73
2022/01/30 00:57:14;;;;;;;7.78;3.63;;;2.60;73.00;;;;;;5014286;28;20060;-73
2022/01/30 00:59:40;;;;;;;16.60;6.38;;;2.60;74.20;;;;;;5013781;28;20423;-73
2022/01/30 01:02:05;;;;;;;10.02;5.15;;;2.50;73.50;;;;;;5013983;28;20127;-73
2022/01/30 01:04:31;;;;;;;13.68;5.75;;;2.50;72.90;;;;;;5013591;28;20041;-73
2022/01/30 01:06:56;;;;;;;7.65;3.50;;;2.40;73.90;;;;;;5013927;28;20042;-73
2022/01/30 01:09:29;;;;;;;7.50;3.38;;;2.40;73.00;;;;;;5013429;28;20038;-73
2022/01/30 01:25:38;;;;;;;10.63;3.73;;;2.20;74.10;;;;;;5013732;28;20129;-73
2022/01/30 01:28:04;;;;;;;9.90;4.63;;;2.20;74.20;;;;;;5012917;28;20484;-73
2022/01/30 01:30:29;;;;;;;7.38;3.42;;;2.10;74.40;;;;;;5013495;28;20030;-73
2022/01/30 01:32:55;;;;;;;8.73;4.07;;;1.90;76.80;;;;;;5013013;28;20037;-73
2022/01/30 01:35:20;;;;;;;6.85;3.20;;;1.70;75.50;;;;;;5013273;28;20034;-73
2022/01/30 01:37:52;;;;;;;6.70;3.40;;;2.10;73.90;;;;;;5013343;28;20038;-74
2022/01/30 01:40:18;;;;;;;9.23;3.75;;;2.30;73.30;;;;;;5012931;28;20037;-73
2022/01/30 01:42:44;;;;;;;13.05;3.92;;;2.40;73.50;;;;;;5012664;28;20038;-73
2022/01/30 01:45:10;;;;;;;9.50;4.28;;;2.20;74.50;;;;;;5013327;28;20034;-73
2022/01/30 01:47:36;;;;;;;7.05;4.03;;;2.10;74.20;;;;;;5012645;28;20042;-75
2022/01/30 01:50:02;;;;;;;7.78;4.22;;;2.10;74.70;;;;;;5012932;28;20471;-72
2022/01/30 01:52:29;;;;;;;8.43;4.07;;;2.00;75.10;;;;;;5012795;28;20045;-74
2022/01/30 01:54:59;;;;;;;8.98;4.03;;;2.00;75.80;;;;;;5012918;28;20121;-73
2022/01/30 01:57:27;;;;;;;10.48;3.95;;;1.90;75.90;;;;;;5012427;28;20084;-74
2022/01/30 01:59:53;;;;;;;7.05;3.45;;;1.80;74.90;;;;;;5012691;28;20030;-75
2022/01/30 02:02:19;;;;;;;7.70;2.65;;;1.80;74.60;;;;;;5013204;28;20080;-74
2022/01/30 02:04:46;;;;;;;8.93;3.15;;;2.00;74.30;;;;;;5012529;28;20042;-74
2022/01/30 02:09:41;;;;;;;8.43;3.90;;;2.10;74.00;;;;;;5012467;28;20455;-74
2022/01/30 02:12:14;;;;;;;6.88;3.03;;;2.10;74.40;;;;;;5012760;28;20045;-75
2022/01/30 02:25:56;;;;;;;8.25;3.20;;;2.10;74.20;;;;;;5012252;28;20458;-74
2022/01/30 02:28:22;;;;;;;5.85;2.92;;;2.20;73.40;;;;;;5012387;28;20069;-74
2022/01/30 02:30:59;;;;;;;7.47;3.33;;;2.40;72.80;;;;;;5011951;28;20038;-74
2022/01/30 02:33:25;;;;;;;7.82;4.03;;;2.30;73.10;;;;;;5012385;28;20032;-74
2022/01/30 02:35:50;;;;;;;5.82;3.30;;;2.20;73.60;;;;;;5011884;28;20034;-75
2022/01/30 02:38:18;;;;;;;8.25;3.88;;;2.20;73.90;;;;;;5012029;28;20105;-75
2022/01/30 02:40:47;;;;;;;8.93;3.25;;;2.10;74.40;;;;;;5012272;28;20034;-74
2022/01/30 02:43:17;;;;;;;7.75;2.85;;;2.00;75.70;;;;;;5012325;28;20025;-74
2022/01/30 02:45:49;;;;;;;9.75;3.40;;;1.60;78.50;;;;;;5012307;28;20022;-74
2022/01/30 02:48:18;;;;;;;6.15;2.78;;;1.60;75.70;;;;;;5011586;28;20077;-75
2022/01/30 02:51:06;;;;;;;6.97;2.63;;;1.60;75.40;;;;;;5012082;28;20045;-75
2022/01/30 02:53:38;;;;;;;6.00;2.45;;;1.50;76.00;;;;;;5012475;28;20069;-74
2022/01/30 02:56:04;;;;;;;5.88;2.65;;;1.90;74.60;;;;;;5011558;28;20049;-75
2022/01/30 02:58:30;;;;;;;6.00;2.58;;;1.90;74.80;;;;;;5012406;28;20479;-74
2022/01/30 03:00:55;;;;;;;6.78;3.00;;;2.00;74.40;;;;;;5011986;28;20036;-74
2022/01/30 03:03:21;;;;;;;6.05;2.50;;;2.00;74.10;;;;;;5012368;28;20126;-73
2022/01/30 03:05:47;;;;;;;5.30;2.42;;;1.90;74.70;;;;;;5012253;28;20037;-74
2022/01/30 03:08:13;;;;;;;6.75;2.75;;;2.00;74.50;;;;;;5016080;28;20048;-73
2022/01/30 03:10:38;;;;;;;4.03;1.88;;;2.10;74.20;;;;;;5016299;28;20030;-73
2022/01/30 03:13:04;;;;;;;7.68;2.63;;;1.90;75.20;;;;;;5016084;28;20084;-73
2022/01/30 03:15:30;;;;;;;7.15;2.80;;;2.00;73.80;;;;;;5016066;28;20076;-73
2022/01/30 03:17:55;;;;;;;8.43;2.65;;;2.10;74.00;;;;;;5015511;28;20038;-74
2022/01/30 03:20:22;;;;;;;5.68;2.70;;;2.10;74.10;;;;;;5016172;28;20048;-73
2022/01/30 03:22:47;;;;;;;13.15;3.05;;;2.00;74.20;;;;;;5015503;28;20091;-73
2022/01/30 03:25:13;;;;;;;7.07;3.05;;;1.80;74.90;;;;;;5015634;28;20042;-73
2022/01/30 03:27:44;;;;;;;6.35;3.22;;;1.70;74.60;;;;;;5015457;28;20393;-73
2022/01/30 03:30:18;;;;;;;9.40;3.33;;;1.70;75.00;;;;;;5015477;28;20064;-73
2022/01/30 03:32:44;;;;;;;6.38;3.03;;;1.90;74.90;;;;;;5015258;28;20521;-73
2022/01/30 03:35:09;;;;;;;7.28;3.00;;;2.20;73.50;;;;;;5015177;28;20113;-73
2022/01/30 03:37:35;;;;;;;7.03;3.10;;;2.20;73.70;;;;;;5014994;28;20034;-73
2022/01/30 03:40:00;;;;;;;7.18;2.63;;;2.10;75.00;;;;;;5015722;28;20468;-73
2022/01/30 03:42:26;;;;;;;7.82;3.65;;;1.90;74.20;;;;;;5015161;28;20038;-73
2022/01/30 03:44:52;;;;;;;7.18;3.25;;;1.90;75.40;;;;;;5015466;28;20041;-73
2022/01/30 03:47:18;;;;;;;7.88;3.20;;;1.80;75.70;;;;;;5015384;28;20041;-73
2022/01/30 03:49:43;;;;;;;5.93;2.58;;;1.80;74.80;;;;;;5014809;28;20480;-73
2022/01/30 03:52:09;;;;;;;8.15;2.90;;;1.70;75.60;;;;;;5015612;28;20029;-73
2022/01/30 03:54:36;;;;;;;7.53;3.20;;;1.50;76.20;;;;;;5014715;28;20397;-73
2022/01/30 03:57:02;;;;;;;6.93;3.47;;;1.50;76.10;;;;;;5015230;28;20537;-73
2022/01/30 03:59:28;;;;;;;7.15;2.42;;;1.50;76.00;;;;;;5014991;28;20026;-73
2022/01/30 04:01:53;;;;;;;5.90;2.78;;;1.40;76.40;;;;;;5013473;28;20473;-72
2022/01/30 04:04:19;;;;;;;4.68;2.45;;;1.60;75.50;;;;;;5001702;28;20046;-73
2022/01/30 04:06:45;;;;;;;7.03;3.10;;;1.40;77.00;;;;;;5007508;28;20048;-72
2022/01/30 04:09:11;;;;;;;5.72;2.22;;;1.40;75.80;;;;;;5007255;28;20455;-74
2022/01/30 04:11:36;;;;;;;4.38;2.17;;;1.50;75.80;;;;;;5006686;28;20113;-72
2022/01/30 04:14:02;;;;;;;6.55;1.90;;;1.60;75.60;;;;;;5007540;28;20052;-72
2022/01/30 04:16:28;;;;;;;6.60;3.10;;;1.50;77.00;;;;;;5006861;28;20033;-72
2022/01/30 04:18:54;;;;;;;7.00;3.03;;;1.40;76.50;;;;;;5007425;28;20486;-72
2022/01/30 04:21:20;;;;;;;7.55;2.78;;;1.30;76.50;;;;;;5006786;28;20034;-72
2022/01/30 04:23:45;;;;;;;8.88;3.30;;;1.30;76.10;;;;;;5008615;28;20025;-72
2022/01/30 04:26:11;;;;;;;7.68;2.50;;;1.30;76.40;;;;;;5009578;28;20092;-71
2022/01/30 04:28:37;;;;;;;6.90;2.97;;;1.20;76.80;;;;;;5009892;28;20042;-72
2022/01/30 04:31:03;;;;;;;5.03;2.17;;;1.10;77.40;;;;;;5010060;28;20034;-73
2022/01/30 04:33:29;;;;;;;6.15;2.08;;;1.30;76.70;;;;;;5010244;28;20040;-72
2022/01/30 04:35:56;;;;;;;6.63;2.47;;;1.30;76.60;;;;;;5009657;28;20109;-72
2022/01/30 04:38:30;;;;;;;6.32;2.58;;;1.40;77.70;;;;;;5009603;28;20029;-72
2022/01/30 04:57:40;;;;;;;8.73;2.60;;;1.30;80.30;;;;;;5009978;28;20037;-72
2022/01/30 05:07:47;;;;;;;7.43;2.35;;;1.30;77.20;;;;;;5009095;28;20057;-73
2022/01/30 05:10:14;;;;;;;5.63;2.15;;;1.50;77.00;;;;;;5009081;28;20045;-73
2022/01/30 05:12:48;;;;;;;6.13;2.63;;;1.40;76.60;;;;;;5009303;28;20038;-72
2022/01/30 05:15:16;;;;;;;6.25;3.10;;;1.30;77.30;;;;;;5009584;28;20464;-73
2022/01/30 05:17:43;;;;;;;6.78;2.30;;;1.20;77.10;;;;;;5009103;28;20038;-73
2022/01/30 05:20:10;;;;;;;6.80;3.15;;;1.40;76.50;;;;;;5009122;28;20048;-72
2022/01/30 05:22:37;;;;;;;4.90;2.63;;;1.40;76.30;;;;;;5008799;28;20033;-72
2022/01/30 05:25:03;;;;;;;6.38;2.10;;;1.40;76.90;;;;;;5009463;28;21678;-73
2022/01/30 05:27:29;;;;;;;6.20;2.80;;;1.30;77.20;;;;;;5009135;28;20049;-72
2022/01/30 05:29:55;;;;;;;5.15;2.70;;;1.00;77.80;;;;;;5008469;28;20484;-72
2022/01/30 05:32:21;;;;;;;6.95;2.50;;;1.00;78.50;;;;;;5009074;28;20037;-73
2022/01/30 05:34:47;;;;;;;6.45;2.38;;;0.90;79.00;;;;;;5007599;28;20034;-73
2022/01/30 05:37:18;;;;;;;5.00;2.08;;;0.80;79.70;;;;;;5001141;28;20037;-72
2022/01/30 05:39:45;;;;;;;5.10;2.28;;;0.90;78.40;;;;;;5008668;28;20041;-73
2022/01/30 05:42:12;;;;;;;6.45;2.58;;;1.10;78.30;;;;;;5008881;28;20072;-73
2022/01/30 05:44:48;;;;;;;5.07;2.50;;;1.10;77.70;;;;;;5008448;28;20062;-72
2022/01/30 05:47:23;;;;;;;4.38;2.53;;;1.30;77.30;;;;;;5008771;28;20034;-72
2022/01/30 05:49:49;;;;;;;9.80;2.30;;;1.30;77.50;;;;;;5008680;28;20120;-72
2022/01/30 05:52:15;;;;;;;8.30;2.15;;;1.20;77.80;;;;;;5008354;28;20064;-72
2022/01/30 05:54:40;;;;;;;6.15;2.63;;;1.10;78.00;;;;;;5007725;28;20487;-73
2022/01/30 05:57:06;;;;;;;4.63;2.70;;;0.90;78.90;;;;;;5007893;28;20034;-72
2022/01/30 05:59:32;;;;;;;6.72;2.55;;;0.80;80.80;;;;;;5007922;28;20029;-73
2022/01/30 06:01:57;;;;;;;5.43;2.30;;;0.80;79.10;;;;;;5008645;28;20121;-72
2022/01/30 06:04:23;;;;;;;5.68;3.10;;;0.90;78.70;;;;;;5006215;28;20045;-73
2022/01/30 06:06:51;;;;;;;7.85;2.83;;;0.80;79.20;;;;;;5005257;28;20416;-73
2022/01/30 06:11:43;;;;;;;5.88;2.42;;;1.00;78.20;;;;;;5008003;28;20045;-73
2022/01/30 06:14:09;;;;;;;5.38;2.45;;;1.30;77.40;;;;;;5007728;28;20553;-73
2022/01/30 06:16:35;;;;;;;5.07;2.05;;;1.20;77.40;;;;;;5008220;28;20057;-72
2022/01/30 06:19:01;;;;;;;5.60;2.03;;;1.20;77.70;;;;;;5008411;28;20033;-72
2022/01/30 06:21:28;;;;;;;5.60;2.60;;;1.10;77.90;;;;;;5007387;28;20030;-73
2022/01/30 06:23:54;;;;;;;5.55;2.40;;;1.10;78.10;;;;;;5007993;28;20075;-72
2022/01/30 06:26:20;;;;;;;6.47;2.85;;;1.00;78.00;;;;;;5007810;28;20049;-73
2022/01/30 06:28:46;;;;;;;8.13;2.92;;;0.90;78.20;;;;;;5007777;28;20060;-73
2022/01/30 06:31:11;;;;;;;5.10;2.58;;;0.70;78.80;;;;;;5007849;28;20022;-73
2022/01/30 06:33:37;;;;;;;5.97;2.30;;;0.70;79.40;;;;;;5008065;28;20590;-72
2022/01/30 06:36:03;;;;;;;8.60;3.63;;;0.70;79.20;;;;;;5007447;28;20036;-73
2022/01/30 06:38:29;;;;;;;7.63;2.60;;;0.70;78.70;;;;;;5007614;28;20097;-73
2022/01/30 06:40:55;;;;;;;7.32;2.88;;;0.80;78.70;;;;;;5006764;28;20088;-73
2022/01/30 06:43:20;;;;;;;4.88;1.90;;;1.10;78.50;;;;;;5007975;28;20037;-72
2022/01/30 06:45:47;;;;;;;4.82;2.20;;;1.20;78.40;;;;;;5007288;28;20040;-72
2022/01/30 06:48:17;;;;;;;6.55;2.13;;;1.10;79.10;;;;;;5007421;28;20160;-73
2022/01/30 06:50:43;;;;;;;5.80;2.33;;;1.00;79.60;;;;;;5006283;28;20058;-72
2022/01/30 06:53:08;;;;;;;7.15;2.60;;;1.00;79.80;;;;;;5004205;28;20076;-73
2022/01/30 06:55:34;;;;;;;5.88;2.83;;;1.00;78.80;;;;;;5004745;28;20041;-73
2022/01/30 06:58:00;;;;;;;6.20;2.72;;;0.90;79.30;;;;;;5005009;28;20038;-73
2022/01/30 07:00:25;;;;;;;4.88;2.28;;;0.80;79.80;;;;;;5004868;28;20038;-73
2022/01/30 07:02:51;;;;;;;5.75;2.58;;;0.70;81.10;;;;;;5003944;28;20096;-73
2022/01/30 07:05:17;;;;;;;6.72;2.97;;;0.60;81.00;;;;;;5004709;28;20029;-73
2022/01/30 07:07:43;;;;;;;5.70;2.53;;;0.80;80.10;;;;;;5004753;28;20510;-75
2022/01/30 07:10:09;;;;;;;6.63;2.83;;;0.80;80.00;;;;;;5004657;28;20049;-72
2022/01/30 07:12:34;;;;;;;6.70;2.88;;;0.80;79.90;;;;;;5004798;28;20452;-72
2022/01/30 07:15:00;;;;;;;7.18;3.30;;;0.90;79.10;;;;;;5004316;28;20064;-72
2022/01/30 07:17:26;;;;;;;7.25;3.30;;;0.90;78.80;;;;;;5003313;28;20033;-72
2022/01/30 07:19:51;;;;;;;7.22;2.58;;;0.90;79.00;;;;;;5003999;28;20096;-73
2022/01/30 07:22:17;;;;;;;8.05;3.03;;;0.80;79.90;;;;;;5004435;28;20084;-73
2022/01/30 07:24:42;;;;;;;8.10;3.00;;;0.90;79.40;;;;;;5003821;28;20041;-72
2022/01/30 07:27:09;;;;;;;5.25;2.38;;;1.00;79.10;;;;;;5004007;28;20133;-72
2022/01/30 07:29:35;;;;;;;5.07;2.30;;;0.90;79.90;;;;;;5003771;28;20045;-72
2022/01/30 07:32:00;;;;;;;5.45;2.70;;;1.10;79.10;;;;;;5004473;28;20030;-72
2022/01/30 07:34:26;;;;;;;6.85;3.33;;;1.20;79.00;;;;;;5000360;28;20120;-72
2022/01/30 07:36:56;;;;;;;9.32;5.00;;;1.20;79.30;;;;;;5004158;28;20113;-72
2022/01/30 07:39:21;;;;;;;6.40;3.15;;;1.10;80.10;;;;;;5004300;28;20026;-72
2022/01/30 07:41:47;;;;;;;6.60;2.75;;;1.10;79.30;;;;;;5004559;28;20053;-72
2022/01/30 07:44:13;;;;;;;7.45;3.03;;;1.20;78.40;;;;;;5003382;28;20038;-72
2022/01/30 07:46:39;;;;;;;4.57;2.13;;;1.40;78.40;;;;;;5004325;28;20589;-72
2022/01/30 07:49:04;;;;;;;5.35;3.25;;;1.30;78.30;;;;;;5004453;28;20072;-72
2022/01/30 07:51:30;;;;;;;11.80;2.83;;;1.20;79.30;;;;;;5003755;28;20096;-74
2022/01/30 07:53:55;;;;;;;5.57;2.47;;;1.20;79.80;;;;;;5007398;28;20864;-72
2022/01/30 07:56:23;;;;;;;6.53;3.13;;;1.20;79.20;;;;;;5007395;28;20038;-72
2022/01/30 07:58:49;;;;;;;5.80;3.25;;;1.20;79.50;;;;;;5007748;28;20439;-72
2022/01/30 08:01:14;;;;;;;6.53;2.90;;;1.20;80.00;;;;;;5007738;28;20050;-73
2022/01/30 08:03:40;;;;;;;7.10;2.75;;;1.20;79.10;;;;;;5008359;28;20472;-72
2022/01/30 08:06:06;;;;;;;5.22;2.65;;;1.20;78.80;;;;;;5007592;28;20046;-75
2022/01/30 08:08:31;;;;;;;4.53;2.33;;;1.20;79.10;;;;;;5008313;28;20104;-75
2022/01/30 08:10:57;;;;;;;9.55;2.47;;;1.30;79.00;;;;;;5007605;28;20036;-73
2022/01/30 08:13:22;;;;;;;8.45;2.83;;;1.40;77.90;;;;;;5007969;28;20036;-72
2022/01/30 08:15:48;;;;;;;6.20;3.15;;;1.40;78.40;;;;;;5007095;28;20033;-73
2022/01/30 08:18:14;;;;;;;5.13;2.75;;;1.40;78.30;;;;;;5007377;28;20453;-72
2022/01/30 08:20:39;;;;;;;6.55;2.75;;;1.30;78.80;;;;;;5008389;28;20069;-72
2022/01/30 08:23:11;;;;;;;9.00;2.58;;;1.30;78.70;;;;;;5007152;28;20117;-72
2022/01/30 08:25:37;;;;;;;5.78;2.30;;;1.40;79.00;;;;;;5007645;28;20487;-73
2022/01/30 08:28:03;;;;;;;5.95;2.92;;;1.50;79.00;;;;;;5006891;28;20049;-75
2022/01/30 08:30:29;;;;;;;5.72;2.47;;;1.50;79.30;;;;;;5007574;28;20089;-72
2022/01/30 08:32:55;;;;;;;10.93;3.28;;;1.40;80.60;;;;;;5006654;28;20037;-73
2022/01/30 08:35:20;;;;;;;8.25;3.80;;;1.40;80.40;;;;;;5006706;28;20030;-74
2022/01/30 08:37:47;;;;;;;10.23;4.10;;;1.40;79.00;;;;;;5006688;28;20049;-73
2022/01/30 08:40:15;;;;;;;6.80;3.42;;;1.40;79.30;;;;;;5007056;28;20041;-72
2022/01/30 08:42:41;;;;;;;6.78;3.63;;;1.30;79.50;;;;;;5006772;28;20053;-72
2022/01/30 08:45:08;;;;;;;5.97;2.72;;;1.30;79.40;;;;;;5008554;28;20034;-72
2022/01/30 08:47:34;;;;;;;5.70;2.70;;;1.30;80.60;;;;;;5009734;28;20146;-73
2022/01/30 08:50:00;;;;;;;7.15;2.65;;;1.30;80.60;;;;;;5010013;28;20456;-73
2022/01/30 08:52:26;;;;;;;5.88;2.88;;;1.30;81.50;;;;;;5009975;28;20479;-73
2022/01/30 08:54:53;;;;;;;7.05;2.83;;;1.30;82.20;;;;;;5009606;28;20091;-72
2022/01/30 08:57:19;;;;;;;6.82;2.90;;;1.40;81.40;;;;;;5010001;28;20021;-72
2022/01/30 08:59:45;;;;;;;7.22;2.88;;;1.40;81.10;;;;;;5009377;28;20040;-72
2022/01/30 09:02:11;;;;;;;6.05;2.75;;;1.40;81.00;;;;;;5009432;28;20065;-73
2022/01/30 09:04:37;;;;;;;5.60;3.20;;;1.40;81.50;;;;;;5008918;28;20417;-72
2022/01/30 09:07:03;;;;;;;7.63;2.97;;;1.20;81.70;;;;;;5009668;28;20046;-73
2022/01/30 09:09:30;;;;;;;5.63;3.15;;;1.20;81.60;;;;;;5009280;28;20196;-73
2022/01/30 09:11:59;;;;;;;6.60;3.17;;;1.10;82.70;;;;;;5009523;28;20033;-72
2022/01/30 09:14:27;;;;;;;6.32;2.40;;;1.00;82.20;;;;;;5009091;28;20127;-72
2022/01/30 09:16:53;;;;;;;6.25;2.28;;;1.10;83.10;;;;;;5009133;28;20030;-72
2022/01/30 09:19:19;;;;;;;5.88;2.22;;;1.10;83.50;;;;;;5008818;28;20396;-73
2022/01/30 09:21:46;;;;;;;4.63;2.40;;;1.00;83.40;;;;;;5008965;28;20487;-72
2022/01/30 09:24:12;;;;;;;11.15;2.60;;;1.30;83.80;;;;;;5008319;28;20484;-74
2022/01/30 09:26:38;;;;;;;10.70;2.78;;;1.30;84.70;;;;;;5009110;28;20069;-72
2022/01/30 09:29:03;;;;;;;6.10;2.38;;;1.30;82.60;;;;;;5009345;28;20108;-73
2022/01/30 09:31:29;;;;;;;6.38;2.53;;;1.40;81.90;;;;;;5008691;28;20113;-73
2022/01/30 09:33:54;;;;;;;4.80;2.38;;;1.40;81.40;;;;;;5009329;28;20108;-73
2022/01/30 09:36:20;;;;;;;6.47;3.13;;;1.50;80.90;;;;;;5008778;28;20106;-72
2022/01/30 09:38:46;;;;;;;5.97;2.83;;;1.50;81.40;;;;;;5009278;28;20030;-72
2022/01/30 09:41:14;;;;;;;5.75;2.50;;;1.50;80.90;;;;;;5007581;28;20431;-75
2022/01/30 09:43:43;;;;;;;7.95;2.65;;;1.50;80.30;;;;;;5008660;28;20040;-74
2022/01/30 09:46:09;;;;;;;5.25;2.10;;;1.70;80.90;;;;;;5008446;28;20125;-72
2022/01/30 09:48:37;;;;;;;6.10;2.83;;;1.60;80.50;;;;;;5007631;28;20042;-72
2022/01/30 09:51:06;;;;;;;7.60;2.35;;;1.70;80.70;;;;;;5008428;28;20034;-75
2022/01/30 09:53:33;;;;;;;5.75;2.85;;;1.80;81.60;;;;;;5008399;28;20045;-72
2022/01/30 09:55:59;;;;;;;5.50;2.40;;;1.80;80.90;;;;;;5008322;28;20030;-72
2022/01/30 09:58:24;;;;;;;6.00;3.03;;;2.00;78.90;;;;;;5008905;28;20026;-72
2022/01/30 10:00:50;;;;;;;7.70;2.40;;;2.10;78.30;;;;;;5008853;28;20038;-73
2022/01/30 10:03:23;;;;;;;8.07;3.08;;;2.20;78.30;;;;;;5008477;28;20038;-73
2022/01/30 10:06:06;;;;;;;6.40;2.83;;;2.20;78.60;;;;;;5008232;28;20033;-73
2022/01/30 10:08:32;;;;;;;4.57;2.03;;;2.30;78.10;;;;;;5007996;28;20037;-73
2022/01/30 10:11:16;;;;;;;6.28;2.92;;;2.40;77.70;;;;;;5008056;28;20076;-73
2022/01/30 10:13:42;;;;;;;6.07;3.00;;;2.60;76.80;;;;;;5008300;28;20030;-73
2022/01/30 10:16:08;;;;;;;9.20;3.03;;;2.90;78.00;;;;;;5007851;28;20030;-72
2022/01/30 10:18:43;;;;;;;7.05;4.35;;;3.00;77.70;;;;;;5008239;28;20034;-73
2022/01/30 10:21:19;;;;;;;8.85;4.93;;;3.10;78.50;;;;;;5008423;28;20034;-73
2022/01/30 10:23:45;;;;;;;11.00;4.60;;;3.10;78.90;;;;;;5008458;28;20045;-73
2022/01/30 10:26:18;;;;;;;10.80;4.70;;;3.10;78.40;;;;;;5007813;28;20380;-72
2022/01/30 10:28:44;;;;;;;9.20;4.07;;;3.30;78.80;;;;;;5008744;28;20073;-72
2022/01/30 10:31:09;;;;;;;8.20;3.40;;;3.30;78.40;;;;;;4999417;28;20038;-73
2022/01/30 10:33:38;;;;;;;9.23;4.85;;;3.30;78.20;;;;;;5008139;28;20095;-73
2022/01/30 10:36:04;;;;;;;7.72;3.78;;;3.30;78.30;;;;;;5007872;28;20034;-73
2022/01/30 10:38:35;;;;;;;6.93;3.92;;;3.40;78.00;;;;;;5008346;28;20036;-72
2022/01/30 10:41:12;;;;;;;8.38;4.10;;;3.50;78.10;;;;;;5008104;28;20032;-72
2022/01/30 10:43:58;;;;;;;8.80;4.93;;;3.60;78.20;;;;;;5007732;28;20026;-72
2022/01/30 10:46:44;;;;;;;9.65;4.93;;;3.90;78.20;;;;;;5008082;28;20022;-71
2022/01/30 10:49:21;;;;;;;11.18;5.00;;;3.80;77.40;;;;;;5008047;28;20030;-71
2022/01/30 10:51:58;;;;;;;8.23;4.18;;;3.90;78.40;;;;;;5007791;28;20041;-71
2022/01/30 10:54:29;;;;;;;12.30;4.95;;;4.00;78.30;;;;;;5007360;28;20083;-72
2022/01/30 10:57:03;;;;;;;11.70;5.60;;;4.00;77.30;;;;;;5007842;28;20033;-72
2022/01/30 10:59:29;;;;;;;12.23;5.63;;;4.10;76.80;;;;;;5007519;28;20057;-72
2022/01/30 11:01:54;;;;;;;12.52;5.30;;;4.30;76.80;;;;;;5007529;28;20072;-71
2022/01/30 11:04:29;;;;;;;13.15;5.47;;;4.30;76.80;;;;;;5007547;28;20065;-72
2022/01/30 11:06:58;;;;;;;9.05;5.20;;;4.40;77.40;;;;;;5008103;28;20049;-72
2022/01/30 11:12:05;;;;;;;10.70;5.75;;;4.70;76.10;;;;;;5008135;28;20044;-72
2022/01/30 11:17:16;;;;;;;9.32;4.68;;;4.70;75.90;;;;;;5007789;28;20034;-72
2022/01/30 11:19:43;;;;;;;9.75;4.80;;;4.90;75.50;;;;;;5007735;28;20374;-72
2022/01/30 11:22:10;;;;;;;9.25;4.57;;;5.10;75.90;;;;;;5008224;28;20464;-72
2022/01/30 11:25:00;;;;;;;8.30;3.78;;;5.20;75.10;;;;;;5007486;28;20045;-72
2022/01/30 11:27:26;;;;;;;8.35;4.45;;;5.40;75.30;;;;;;5009373;28;20074;-72
2022/01/30 11:29:52;;;;;;;14.73;4.88;;;5.60;74.70;;;;;;5011736;28;20061;-72
2022/01/30 11:32:20;;;;;;;7.53;4.28;;;5.60;74.10;;;;;;5011641;28;20037;-72
2022/01/30 11:34:46;;;;;;;8.40;4.35;;;5.70;73.80;;;;;;5010826;28;20034;-73
2022/01/30 11:37:16;;;;;;;9.73;4.82;;;5.80;74.10;;;;;;5010399;28;20089;-72
2022/01/30 11:39:44;;;;;;;11.35;4.10;;;5.80;73.80;;;;;;5011043;28;20033;-72
2022/01/30 11:42:11;;;;;;;7.32;4.32;;;6.00;73.70;;;;;;5011420;28;20116;-73
2022/01/30 11:44:38;;;;;;;16.65;5.45;;;6.10;73.70;;;;;;5009784;28;20038;-72
2022/01/30 11:47:03;;;;;;;16.88;8.07;;;6.30;74.40;;;;;;5011050;28;20037;-73
2022/01/30 11:49:41;;;;;;;8.52;4.45;;;6.70;73.60;;;;;;5010561;28;20037;-72
2022/01/30 11:52:11;;;;;;;9.77;4.50;;;6.70;73.40;;;;;;5010710;28;20111;-73
2022/01/30 11:54:51;;;;;;;10.48;4.78;;;6.70;72.90;;;;;;5010850;28;20040;-73
2022/01/30 11:57:22;;;;;;;8.32;4.47;;;6.70;73.20;;;;;;5011061;28;20034;-73
2022/01/30 11:59:56;;;;;;;8.48;4.38;;;6.60;72.40;;;;;;5010693;28;20038;-72
2022/01/30 12:02:32;;;;;;;12.40;6.47;;;6.70;72.40;;;;;;5011045;28;20373;-73
2022/01/30 12:05:00;;;;;;;12.40;6.88;;;7.00;72.40;;;;;;5010860;28;20034;-72
2022/01/30 12:07:35;;;;;;;8.32;5.00;;;7.30;72.90;;;;;;5011126;28;20403;-73
2022/01/30 12:10:15;;;;;;;8.05;4.22;;;7.40;72.70;;;;;;5010710;28;20057;-73
2022/01/30 12:12:59;;;;;;;8.80;4.82;;;7.40;72.50;;;;;;5010607;28;20033;-73
2022/01/30 12:15:36;;;;;;;64.32;35.88;;;7.30;72.00;;;;;;5010828;28;20025;-73
2022/01/30 12:18:07;;;;;;;14.85;9.02;;;7.60;72.60;;;;;;5010451;28;20088;-73
2022/01/30 12:21:13;;;;;;;95.88;53.58;;;7.80;72.80;;;;;;5011086;28;20042;-73
2022/01/30 12:23:41;;;;;;;23.00;16.52;;;7.90;72.30;;;;;;5010557;28;20038;-73
2022/01/30 12:26:09;;;;;;;12.65;8.70;;;7.90;71.70;;;;;;5009473;28;20049;-73
2022/01/30 12:28:45;;;;;;;12.60;6.32;;;7.90;71.80;;;;;;5005619;28;20030;-73
2022/01/30 12:31:33;;;;;;;11.68;7.78;;;7.90;72.10;;;;;;5007239;28;20029;-74
2022/01/30 12:34:10;;;;;;;9.35;5.70;;;8.10;71.50;;;;;;5010300;28;20056;-72
2022/01/30 12:36:36;;;;;;;10.82;4.95;;;8.10;71.50;;;;;;5009970;28;20041;-73
2022/01/30 12:39:08;;;;;;;9.93;4.88;;;8.10;71.90;;;;;;5009296;28;20037;-73
2022/01/30 12:41:36;;;;;;;11.10;4.30;;;8.20;71.70;;;;;;5009927;28;20125;-72
2022/01/30 12:44:13;;;;;;;14.73;5.70;;;8.50;71.50;;;;;;5010053;28;20030;-72
2022/01/30 12:46:53;;;;;;;7.43;4.40;;;8.50;71.90;;;;;;5010168;28;20026;-72
2022/01/30 12:49:28;;;;;;;8.38;4.97;;;8.50;70.90;;;;;;5009427;28;20026;-72
2022/01/30 12:51:56;;;;;;;11.18;5.15;;;8.50;71.20;;;;;;5009283;28;20026;-72
2022/01/30 12:54:27;;;;;;;9.07;5.28;;;8.40;70.50;;;;;;5009529;28;20033;-72
2022/01/30 12:56:54;;;;;;;9.55;4.57;;;8.50;71.70;;;;;;5009882;28;20037;-73
2022/01/30 12:59:24;;;;;;;9.05;4.45;;;8.80;71.80;;;;;;5009505;28;20038;-74
2022/01/30 13:01:51;;;;;;;8.27;5.28;;;9.00;71.60;;;;;;5009032;28;20037;-72
2022/01/30 13:04:20;;;;;;;8.57;4.72;;;9.00;70.90;;;;;;5009061;28;20033;-72
2022/01/30 13:06:51;;;;;;;7.60;4.25;;;9.00;70.90;;;;;;5009621;28;20121;-72
2022/01/30 13:09:20;;;;;;;9.30;5.00;;;9.10;70.60;;;;;;5009890;28;20026;-73
2022/01/30 13:11:46;;;;;;;8.27;4.85;;;9.20;71.40;;;;;;5010116;28;20113;-72
2022/01/30 13:14:12;;;;;;;9.07;5.13;;;9.20;70.60;;;;;;5008962;28;20121;-72
2022/01/30 13:16:43;;;;;;;10.52;5.45;;;9.30;70.70;;;;;;5008894;28;20026;-73
2022/01/30 13:19:14;;;;;;;11.98;5.13;;;9.20;70.60;;;;;;5009386;28;20108;-72
2022/01/30 13:21:46;;;;;;;19.98;11.20;;;9.40;70.20;;;;;;5009215;28;20373;-72
2022/01/30 13:24:18;;;;;;;9.68;5.50;;;9.50;70.60;;;;;;5008219;28;20033;-72
2022/01/30 13:26:45;;;;;;;8.60;5.30;;;9.30;69.60;;;;;;5009028;28;20503;-72
2022/01/30 13:29:20;;;;;;;8.50;4.40;;;9.20;69.40;;;;;;5009002;28;20030;-72
2022/01/30 13:31:48;;;;;;;8.30;4.78;;;9.20;70.40;;;;;;5009313;28;20030;-72
2022/01/30 13:34:26;;;;;;;8.32;4.60;;;9.30;70.30;;;;;;5006980;28;20378;-73
2022/01/30 13:37:01;;;;;;;9.93;5.20;;;9.50;70.10;;;;;;5009159;28;20407;-72
2022/01/30 13:39:36;;;;;;;15.25;4.78;;;9.30;70.30;;;;;;5008629;28;20041;-72
2022/01/30 13:47:58;;;;;;;12.55;4.65;;;9.70;69.80;;;;;;5008588;28;20050;-72
2022/01/30 13:50:26;;;;;;;8.57;4.68;;;9.70;70.20;;;;;;5008233;28;20045;-72
2022/01/30 13:53:03;;;;;;;9.35;5.15;;;9.90;70.10;;;;;;5008439;28;20041;-72
2022/01/30 13:55:30;;;;;;;7.45;4.03;;;9.90;69.70;;;;;;5008653;28;20116;-72
2022/01/30 13:57:57;;;;;;;7.68;4.28;;;9.70;69.40;;;;;;5008129;28;20429;-72
2022/01/30 14:00:24;;;;;;;8.85;3.92;;;9.70;69.60;;;;;;5008725;28;20034;-72
2022/01/30 14:03:01;;;;;;;8.05;4.28;;;9.70;69.90;;;;;;5008044;28;20076;-75
2022/01/30 14:05:47;;;;;;;8.43;4.10;;;9.60;70.60;;;;;;5008538;28;20076;-72